Time;durP1;ratioP1;P1;durP2;ratioP2;P2;SDS_P1;SDS_P2;PMS_P1;PMS_P2;Temp;Humidity;BMP_temperature;BMP_pressure;BME280_temperature;BME280_humidity;BME280_pressure;Samples;Min_cycle;Max_cycle;Signal;HPM_P1;HPM_P2
2021/11/17 02:26:46;;;;;;;;;;;;;;;19.89;55.61;100302.72;2091425;28;19916;-60
2021/11/17 02:28:05;;;;;;;;;;;;;;;19.89;55.44;100294.50;2081735;28;19925;-60
2021/11/17 02:29:06;;;;;;;;;;;;;;;19.90;55.46;100303.56;2083246;28;19943;-60
2021/11/17 02:30:06;;;;;;;;;;;;;;;19.90;55.45;100303.56;2084749;28;20039;-60
2021/11/17 02:31:12;;;;;;;;;;;;;;;19.91;55.56;100299.81;2076640;28;19905;-60
2021/11/17 02:32:20;;;;;;;;;;;;;;;19.89;55.64;100291.78;2072600;28;19914;-61
2021/11/17 02:33:27;;;;;;;;;;;;;;;19.91;55.48;100297.06;2084030;28;19917;-60
2021/11/17 02:34:45;;;;;;;;;;;;;;;19.91;55.63;100291.59;2081607;28;19920;-60
2021/11/17 02:35:45;;;;;;;;;;;;;;;19.91;55.61;100286.13;2084095;28;19986;-60
2021/11/17 02:37:04;;;;;;;;;;;;;;;19.92;55.62;100298.81;2081298;28;19921;-60
2021/11/17 02:38:19;;;;;;;;;;;;;;;19.92;55.64;100296.09;2078653;28;19949;-59
2021/11/17 02:39:22;;;;;;;;;;;;;;;19.93;55.48;100292.31;2078162;28;19965;-60
2021/11/17 02:40:38;;;;;;;;;;;;;;;19.93;55.61;100297.78;2082780;28;20207;-60
2021/11/17 02:41:45;;;;;;;;;;;;;;;19.93;55.44;100295.06;2086432;28;19917;-60
2021/11/17 02:42:48;;;;;;;;;;;;;;;19.93;55.47;100292.31;2078184;28;20118;-60
2021/11/17 02:44:18;;;;;;;;;;;;;;;19.92;55.51;100291.47;2084076;28;20262;-60
2021/11/17 02:45:27;;;;;;;;;;;;;;;19.92;55.55;100298.81;2077210;28;19968;-60
2021/11/17 02:46:34;;;;;;;;;;;;;;;19.92;55.43;100296.94;2075693;28;19988;-60
2021/11/17 02:47:38;;;;;;;;;;;;;;;19.92;55.38;100298.81;2077064;28;19919;-60
2021/11/17 02:48:57;;;;;;;;;;;;;;;19.92;55.53;100296.09;2084464;28;20012;-60
2021/11/17 02:50:03;;;;;;;;;;;;;;;19.91;55.59;100295.19;2081527;28;19917;-60
2021/11/17 02:51:09;;;;;;;;;;;;;;;19.90;55.55;100298.94;2081055;28;20402;-60
2021/11/17 02:52:16;;;;;;;;;;;;;;;19.90;55.64;100293.47;2084359;28;19917;-60
2021/11/17 02:53:23;;;;;;;;;;;;;;;19.90;55.41;100295.38;2082890;28;19917;-60
2021/11/17 02:54:23;;;;;;;;;;;;;;;19.89;55.46;100301.81;2083316;28;20359;-60
2021/11/17 02:55:32;;;;;;;;;;;;;;;19.90;55.55;100303.56;2084416;28;20302;-60
2021/11/17 02:56:52;;;;;;;;;;;;;;;19.89;55.43;100296.34;2081851;28;19943;-60
2021/11/17 02:57:58;;;;;;;;;;;;;;;19.89;55.54;100304.56;2079234;28;19913;-60
2021/11/17 02:59:21;;;;;;;;;;;;;;;19.87;55.63;100303.88;2084052;28;19913;-60
2021/11/17 03:00:27;;;;;;;;;;;;;;;19.86;55.28;100308.47;2083188;28;20310;-60
2021/11/17 03:01:39;;;;;;;;;;;;;;;19.87;55.56;100304.72;2082635;28;19940;-60
2021/11/17 03:02:59;;;;;;;;;;;;;;;19.87;55.36;100303.88;2080400;28;19920;-60
2021/11/17 03:04:02;;;;;;;;;;;;;;;19.86;55.51;100310.34;2079227;28;19917;-59
2021/11/17 03:05:10;;;;;;;;;;;;;;;19.86;55.58;100307.59;2087195;28;20365;-59
2021/11/17 03:06:17;;;;;;;;;;;;;;;19.84;55.57;100305.03;2082211;28;20263;-59
2021/11/17 03:07:17;;;;;;;;;;;;;;;19.84;55.53;100302.31;2083339;28;20260;-60
2021/11/17 03:08:21;;;;;;;;;;;;;;;19.84;55.52;100301.41;2083850;28;20213;-59
2021/11/17 03:09:27;;;;;;;;;;;;;;;19.83;55.48;100305.19;2084688;28;20441;-59
2021/11/17 03:10:46;;;;;;;;;;;;;;;19.83;55.51;100307.91;2084112;28;19917;-59
2021/11/17 03:11:47;;;;;;;;;;;;;;;19.82;55.45;100306.19;2083955;28;20386;-59
2021/11/17 03:12:47;;;;;;;;;;;;;;;19.82;55.48;100303.44;2083063;28;20411;-59
2021/11/17 03:13:51;;;;;;;;;;;;;;;19.81;55.47;100308.06;2083107;28;20371;-59
2021/11/17 03:14:58;;;;;;;;;;;;;;;19.80;55.43;100303.59;2083774;28;19956;-59
2021/11/17 03:16:10;;;;;;;;;;;;;;;19.81;55.49;100304.47;2073707;28;19983;-59
2021/11/17 03:17:17;;;;;;;;;;;;;;;19.81;55.57;100304.47;2076287;28;20024;-59
2021/11/17 03:18:21;;;;;;;;;;;;;;;19.80;55.56;100303.59;2084374;28;19917;-59
2021/11/17 03:19:21;;;;;;;;;;;;;;;19.79;55.46;100307.34;2083421;28;20528;-59
2021/11/17 03:20:27;;;;;;;;;;;;;;;19.79;55.55;100306.47;2083653;28;19978;-59
2021/11/17 03:21:31;;;;;;;;;;;;;;;19.79;55.51;100301.88;2082221;28;19917;-59
2021/11/17 03:22:34;;;;;;;;;;;;;;;19.78;55.61;100299.31;2081128;28;19962;-59
2021/11/17 03:23:53;;;;;;;;;;;;;;;19.78;55.65;100302.03;2085692;28;20196;-59
2021/11/17 03:25:07;;;;;;;;;;;;;;;19.78;55.51;100299.31;2078813;28;19917;-60
2021/11/17 03:26:18;;;;;;;;;;;;;;;19.78;55.54;100302.03;2077417;28;19917;-60
2021/11/17 03:27:50;;;;;;;;;;;;;;;19.77;55.52;100303.91;2086027;28;20279;-60
2021/11/17 03:28:53;;;;;;;;;;;;;;;19.76;55.54;100293.13;2055042;28;19918;-59
2021/11/17 03:29:56;;;;;;;;;;;;;;;19.75;55.52;100299.59;2076541;28;19917;-59
2021/11/17 03:31:00;;;;;;;;;;;;;;;19.75;55.51;100305.94;2080742;28;19917;-60
2021/11/17 03:32:09;;;;;;;;;;;;;;;19.75;55.51;100296.88;2082470;28;19998;-60
2021/11/17 03:33:09;;;;;;;;;;;;;;;19.74;55.64;100297.88;2084039;28;19978;-59
2021/11/17 03:34:13;;;;;;;;;;;;;;;19.73;55.50;100302.47;2083096;28;19969;-60
2021/11/17 03:35:28;;;;;;;;;;;;;;;19.73;55.67;100294.28;2085234;28;19999;-60
2021/11/17 03:36:51;;;;;;;;;;;;;;;19.73;55.56;100302.47;2071470;28;19913;-60
2021/11/17 03:38:05;;;;;;;;;;;;;;;19.73;55.64;100296.16;2063937;28;19905;-60
2021/11/17 03:39:18;;;;;;;;;;;;;;;19.73;55.78;100296.16;2079319;28;19917;-59
2021/11/17 03:40:18;;;;;;;;;;;;;;;19.72;55.69;100294.41;2084348;28;19963;-60
2021/11/17 03:41:26;;;;;;;;;;;;;;;19.72;55.54;100297.16;2084657;28;19965;-61
2021/11/17 03:42:56;;;;;;;;;;;;;;;19.71;55.64;100293.56;2086056;28;19921;-60
2021/11/17 03:43:56;;;;;;;;;;;;;;;19.70;55.66;100295.44;2074303;28;19916;-60
2021/11/17 03:45:05;;;;;;;;;;;;;;;19.70;55.65;100298.16;2081641;28;19968;-60
2021/11/17 03:46:15;;;;;;;;;;;;;;;19.69;55.71;100292.84;2081026;28;20021;-60
2021/11/17 03:47:22;;;;;;;;;;;;;;;19.69;55.72;100290.09;2084163;28;20231;-60
2021/11/17 03:48:31;;;;;;;;;;;;;;;19.68;55.68;100281.03;2084228;28;19917;-59
2021/11/17 03:49:31;;;;;;;;;;;;;;;19.68;55.77;100286.50;2084516;28;20027;-60
2021/11/17 03:50:50;;;;;;;;;;;;;;;19.68;55.69;100283.78;2084448;28;20086;-59
2021/11/17 03:52:05;;;;;;;;;;;;;;;19.68;55.76;100289.25;2076426;28;20544;-60
2021/11/17 03:53:24;;;;;;;;;;;;;;;19.67;55.81;100284.81;2078476;28;19935;-60
2021/11/17 03:54:27;;;;;;;;;;;;;;;19.67;55.69;100287.53;2083497;28;19905;-60
2021/11/17 03:55:28;;;;;;;;;;;;;;;19.66;55.70;100285.75;2078820;28;19928;-60
2021/11/17 03:56:48;;;;;;;;;;;;;;;19.65;55.85;100281.31;2084829;28;19912;-60
2021/11/17 03:57:54;;;;;;;;;;;;;;;19.66;55.80;100282.16;2083188;28;20393;-60
2021/11/17 03:59:02;;;;;;;;;;;;;;;19.65;55.68;100284.06;2081100;28;19909;-59
2021/11/17 04:00:12;;;;;;;;;;;;;;;19.65;55.87;100275.84;2075434;28;20027;-60
2021/11/17 04:01:19;;;;;;;;;;;;;;;19.65;55.79;100275.00;2076725;28;19917;-60
2021/11/17 04:02:38;;;;;;;;;;;;;;;19.64;55.90;100279.56;2084752;28;19924;-60
2021/11/17 04:03:45;;;;;;;;;;;;;;;19.64;55.82;100273.25;2084364;28;19917;-60
2021/11/17 04:04:45;;;;;;;;;;;;;;;19.63;55.79;100269.66;2085560;28;20334;-59
2021/11/17 04:06:00;;;;;;;;;;;;;;;19.63;55.87;100275.13;2084271;28;19915;-60
2021/11/17 04:07:20;;;;;;;;;;;;;;;19.63;55.78;100274.28;2083035;28;19917;-60
2021/11/17 04:08:23;;;;;;;;;;;;;;;19.63;55.88;100279.75;2084711;28;20440;-59
2021/11/17 04:09:26;;;;;;;;;;;;;;;19.62;55.79;100278.88;2076193;28;19941;-60
2021/11/17 04:10:45;;;;;;;;;;;;;;;19.62;55.88;100281.63;2074144;28;20478;-60
2021/11/17 04:11:49;;;;;;;;;;;;;;;19.62;55.97;100281.63;2084610;28;19917;-59
2021/11/17 04:13:06;;;;;;;;;;;;;;;19.61;55.80;100279.03;2083728;28;19917;-60
2021/11/17 04:14:19;;;;;;;;;;;;;;;19.62;55.90;100283.47;2083680;28;19993;-60
2021/11/17 04:15:23;;;;;;;;;;;;;;;19.61;55.91;100277.16;2075520;28;19916;-60
2021/11/17 04:16:33;;;;;;;;;;;;;;;19.60;55.99;100286.38;2076290;28;19939;-60
2021/11/17 04:17:57;;;;;;;;;;;;;;;19.60;55.98;100280.03;2083505;28;19968;-60
2021/11/17 04:19:00;;;;;;;;;;;;;;;19.60;55.98;100289.09;2059603;28;19932;-60
2021/11/17 04:20:10;;;;;;;;;;;;;;;19.60;55.96;100282.75;2082297;28;19925;-60
2021/11/17 04:21:29;;;;;;;;;;;;;;;19.60;55.93;100291.84;2084684;28;19916;-60
2021/11/17 04:22:48;;;;;;;;;;;;;;;19.59;55.96;100279.16;2082965;28;19905;-60
2021/11/17 04:23:49;;;;;;;;;;;;;;;19.59;56.00;100289.25;2075201;28;19932;-60
2021/11/17 04:24:59;;;;;;;;;;;;;;;19.59;55.84;100284.63;2076180;28;19924;-60
2021/11/17 04:25:59;;;;;;;;;;;;;;;19.58;55.93;100288.38;2083698;28;19927;-60
2021/11/17 04:26:59;;;;;;;;;;;;;;;19.58;55.94;100288.38;2084984;28;20394;-60
2021/11/17 04:28:21;;;;;;;;;;;;;;;19.58;56.10;100288.38;2082251;28;20372;-60
2021/11/17 04:29:39;;;;;;;;;;;;;;;19.58;55.91;100285.66;2081957;28;19917;-60
2021/11/17 04:31:02;;;;;;;;;;;;;;;19.57;55.91;100283.91;2083857;28;19943;-60
2021/11/17 04:32:13;;;;;;;;;;;;;;;19.57;55.88;100281.19;2080401;28;20311;-60
2021/11/17 04:33:39;;;;;;;;;;;;;;;19.57;55.99;100286.66;2084523;28;19905;-59
2021/11/17 04:34:58;;;;;;;;;;;;;;;19.56;55.98;100289.56;2080086;28;20360;-60
2021/11/17 04:36:30;;;;;;;;;;;;;;;19.55;56.05;100283.22;2078936;28;19913;-60
2021/11/17 04:37:44;;;;;;;;;;;;;;;19.54;55.94;100273.28;2058116;28;19913;-60
2021/11/17 04:38:49;;;;;;;;;;;;;;;19.54;55.97;100270.53;2077092;28;19931;-60
2021/11/17 04:40:08;;;;;;;;;;;;;;;19.54;55.86;100273.28;2078928;28;19971;-60
2021/11/17 04:41:14;;;;;;;;;;;;;;;19.52;55.86;100272.56;2079990;28;19920;-60
2021/11/17 04:42:21;;;;;;;;;;;;;;;19.54;55.85;100276.00;2074485;28;19961;-59
2021/11/17 04:43:24;;;;;;;;;;;;;;;19.54;55.88;100272.44;2069591;28;19925;-60
2021/11/17 04:44:27;;;;;;;;;;;;;;;19.53;55.76;100268.84;2087926;28;19969;-60
2021/11/17 04:45:40;;;;;;;;;;;;;;;19.53;55.90;100270.72;2082420;28;19959;-60
2021/11/17 04:46:46;;;;;;;;;;;;;;;19.52;55.98;100267.09;2080825;28;19978;-60
2021/11/17 04:47:49;;;;;;;;;;;;;;;19.52;55.97;100269.81;2082179;28;19956;-60
2021/11/17 04:49:08;;;;;;;;;;;;;;;19.53;55.91;100279.78;2083622;28;19920;-59
2021/11/17 04:50:08;;;;;;;;;;;;;;;19.52;55.92;100279.91;2081565;28;19920;-60
2021/11/17 04:51:24;;;;;;;;;;;;;;;19.51;55.91;100276.31;2083500;28;19971;-60
2021/11/17 04:52:53;;;;;;;;;;;;;;;19.51;55.91;100281.78;2080104;28;19913;-60
2021/11/17 04:53:59;;;;;;;;;;;;;;;19.50;55.99;100274.59;2068285;28;19963;-59
2021/11/17 04:55:13;;;;;;;;;;;;;;;19.51;55.98;100276.31;2083065;28;19975;-60
2021/11/17 04:56:39;;;;;;;;;;;;;;;19.51;56.06;100276.31;2079589;28;19951;-60
2021/11/17 04:57:55;;;;;;;;;;;;;;;19.50;55.99;100280.06;2073709;28;19905;-60
2021/11/17 04:58:58;;;;;;;;;;;;;;;19.50;55.99;100280.06;2082176;28;19970;-60
2021/11/17 04:59:59;;;;;;;;;;;;;;;19.49;56.00;100281.06;2077544;28;19960;-60
2021/11/17 05:01:08;;;;;;;;;;;;;;;19.51;55.99;100287.25;2081232;28;19920;-61
2021/11/17 05:02:12;;;;;;;;;;;;;;;19.49;55.96;100278.34;2081256;28;19912;-60
2021/11/17 05:03:25;;;;;;;;;;;;;;;19.50;55.92;100280.06;2085538;28;19966;-60
2021/11/17 05:04:37;;;;;;;;;;;;;;;19.49;55.88;100279.19;2079681;28;20090;-60
2021/11/17 05:05:43;;;;;;;;;;;;;;;19.51;55.91;100281.78;2081670;28;19930;-60
2021/11/17 05:06:50;;;;;;;;;;;;;;;19.51;55.98;100270.84;2081467;28;19921;-60
2021/11/17 05:07:57;;;;;;;;;;;;;;;19.51;55.97;100273.59;2084316;28;19920;-60
2021/11/17 05:09:05;;;;;;;;;;;;;;;19.51;55.98;100276.31;2083074;28;20417;-60
2021/11/17 05:10:12;;;;;;;;;;;;;;;19.52;55.87;100278.03;2077886;28;20341;-60
2021/11/17 05:11:18;;;;;;;;;;;;;;;19.52;55.94;100267.09;2084022;28;20591;-60
2021/11/17 05:12:27;;;;;;;;;;;;;;;19.52;56.12;100275.28;2081916;28;20394;-60
2021/11/17 05:13:33;;;;;;;;;;;;;;;19.51;56.12;100273.59;2072552;28;19921;-61
2021/11/17 05:14:33;;;;;;;;;;;;;;;19.51;56.02;100268.13;2071179;28;20044;-60
2021/11/17 05:15:42;;;;;;;;;;;;;;;19.52;55.99;100267.09;2070408;28;19938;-61
2021/11/17 05:16:52;;;;;;;;;;;;;;;19.52;55.98;100269.81;2083745;28;19965;-60
2021/11/17 05:17:58;;;;;;;;;;;;;;;19.53;55.90;100267.97;2083826;28;19912;-60
2021/11/17 05:19:11;;;;;;;;;;;;;;;19.52;55.99;100261.63;2083672;28;20237;-60
2021/11/17 05:20:26;;;;;;;;;;;;;;;19.52;55.82;100272.56;2084358;28;20326;-60
2021/11/17 05:21:31;;;;;;;;;;;;;;;19.53;55.96;100273.44;2073931;28;19922;-60
2021/11/17 05:22:31;;;;;;;;;;;;;;;19.52;55.96;100267.09;2076166;28;20053;-60
2021/11/17 05:23:35;;;;;;;;;;;;;;;19.52;55.90;100272.56;2083944;28;19921;-59
2021/11/17 05:24:35;;;;;;;;;;;;;;;19.52;56.00;100272.56;2083974;28;20016;-60
2021/11/17 05:25:38;;;;;;;;;;;;;;;19.52;55.89;100283.50;2084412;28;19917;-59
2021/11/17 05:26:50;;;;;;;;;;;;;;;19.52;55.98;100285.38;2083976;28;20509;-60
2021/11/17 05:27:58;;;;;;;;;;;;;;;19.51;55.94;100281.78;2083104;28;19921;-60
2021/11/17 05:29:10;;;;;;;;;;;;;;;19.51;55.98;100287.25;2080236;28;19924;-60
2021/11/17 05:30:28;;;;;;;;;;;;;;;19.51;55.91;100280.94;2078323;28;19924;-60
2021/11/17 05:31:31;;;;;;;;;;;;;;;19.51;55.91;100280.94;2067871;28;19964;-61
2021/11/17 05:32:45;;;;;;;;;;;;;;;19.51;55.93;100284.53;2073192;28;19979;-60
2021/11/17 05:34:12;;;;;;;;;;;;;;;19.50;55.90;100274.59;2079199;28;19920;-60
2021/11/17 05:35:20;;;;;;;;;;;;;;;19.50;55.93;100280.06;2067225;28;20512;-60
2021/11/17 05:36:32;;;;;;;;;;;;;;;19.49;55.89;100284.66;2082086;28;19939;-61
2021/11/17 05:37:33;;;;;;;;;;;;;;;19.48;55.92;100277.47;2083940;28;20346;-60
2021/11/17 05:38:45;;;;;;;;;;;;;;;19.49;55.99;100286.53;2083847;28;19917;-60
2021/11/17 05:39:55;;;;;;;;;;;;;;;19.47;55.86;100286.66;2084107;28;19982;-61
2021/11/17 05:40:55;;;;;;;;;;;;;;;19.48;55.86;100287.56;2083276;28;20005;-60
2021/11/17 05:42:13;;;;;;;;;;;;;;;19.48;56.01;100290.28;2083910;28;19920;-60
2021/11/17 05:43:17;;;;;;;;;;;;;;;19.48;55.89;100293.03;2083854;28;20399;-60
2021/11/17 05:44:17;;;;;;;;;;;;;;;19.48;56.03;100282.09;2085789;28;19920;-60
2021/11/17 05:45:30;;;;;;;;;;;;;;;19.48;55.92;100284.81;2082933;28;19946;-60
2021/11/17 05:46:39;;;;;;;;;;;;;;;19.47;55.94;100294.03;2084258;28;20295;-58
2021/11/17 05:47:48;;;;;;;;;;;;;;;19.46;55.95;100293.16;2080077;28;19917;-58
2021/11/17 05:49:06;;;;;;;;;;;;;;;19.45;55.98;100299.66;2084676;28;19913;-59
2021/11/17 05:50:22;;;;;;;;;;;;;;;19.46;56.03;100300.50;2083406;28;19943;-59
2021/11/17 05:51:35;;;;;;;;;;;;;;;19.45;56.05;100299.66;2083351;28;19923;-59
2021/11/17 05:52:54;;;;;;;;;;;;;;;19.46;55.99;100300.50;2083825;28;19923;-59
2021/11/17 05:54:06;;;;;;;;;;;;;;;19.45;55.97;100298.75;2072209;28;19921;-59
2021/11/17 05:55:21;;;;;;;;;;;;;;;19.44;56.19;100297.06;2073471;28;19913;-59
2021/11/17 05:56:28;;;;;;;;;;;;;;;19.44;56.00;100308.00;2086802;28;19925;-59
2021/11/17 05:57:31;;;;;;;;;;;;;;;19.44;56.00;100302.53;2080973;28;19962;-59
2021/11/17 05:58:50;;;;;;;;;;;;;;;19.43;55.93;100300.81;2082769;28;19924;-59
2021/11/17 05:59:56;;;;;;;;;;;;;;;19.43;55.99;100306.28;2080314;28;19917;-59
2021/11/17 06:01:15;;;;;;;;;;;;;;;19.43;55.97;100300.81;2079643;28;19990;-59
2021/11/17 06:02:45;;;;;;;;;;;;;;;19.42;56.02;100307.28;2081977;28;19916;-59
2021/11/17 06:04:05;;;;;;;;;;;;;;;19.41;55.97;100308.28;2081358;28;19921;-59
2021/11/17 06:05:05;;;;;;;;;;;;;;;19.42;56.01;100310.00;2078886;28;20325;-59
2021/11/17 06:06:05;;;;;;;;;;;;;;;19.41;56.10;100309.16;2077945;28;19920;-67
2021/11/17 06:07:05;;;;;;;;;;;;;;;19.41;55.98;100302.81;2073649;28;20701;-66
2021/11/17 06:08:05;;;;;;;;;;;;;;;19.41;55.97;100308.28;2075154;28;19917;-65
2021/11/17 06:09:06;;;;;;;;;;;;;;;19.41;56.07;100308.28;2071339;28;19909;-66
2021/11/17 06:10:17;;;;;;;;;;;;;;;19.40;55.95;100312.91;2075517;28;19981;-66
2021/11/17 06:11:18;;;;;;;;;;;;;;;19.40;56.00;100301.97;2072587;28;20181;-66
2021/11/17 06:12:18;;;;;;;;;;;;;;;19.41;55.92;100311.03;2075446;28;19917;-65
2021/11/17 06:13:19;;;;;;;;;;;;;;;19.40;56.06;100310.16;2070554;28;19917;-65
2021/11/17 06:14:21;;;;;;;;;;;;;;;19.40;55.99;100303.81;2070705;28;20013;-65
2021/11/17 06:15:22;;;;;;;;;;;;;;;19.39;56.03;100302.97;2075965;28;19916;-66
2021/11/17 06:16:22;;;;;;;;;;;;;;;19.40;56.11;100303.81;2074334;28;20335;-66
2021/11/17 06:17:25;;;;;;;;;;;;;;;19.39;56.15;100311.16;2075020;28;19920;-66
2021/11/17 06:18:27;;;;;;;;;;;;;;;19.38;56.05;100309.44;2076709;28;19960;-66
2021/11/17 06:19:31;;;;;;;;;;;;;;;19.38;56.14;100308.59;2075454;28;19948;-65
2021/11/17 06:20:32;;;;;;;;;;;;;;;19.38;56.08;100308.59;2066187;28;20692;-66
2021/11/17 06:21:33;;;;;;;;;;;;;;;19.38;56.05;100308.59;2067263;28;19916;-66
2021/11/17 06:22:34;;;;;;;;;;;;;;;19.38;56.05;100308.59;2075423;28;19909;-65
2021/11/17 06:23:41;;;;;;;;;;;;;;;19.38;55.84;100308.59;2077264;28;19921;-65
2021/11/17 06:24:42;;;;;;;;;;;;;;;19.38;56.17;100303.13;2079004;28;19921;-65
2021/11/17 06:25:42;;;;;;;;;;;;;;;19.37;56.10;100313.19;2071497;28;19916;-66
2021/11/17 06:26:44;;;;;;;;;;;;;;;19.37;56.05;100312.31;2074417;28;20428;-65
2021/11/17 06:27:50;;;;;;;;;;;;;;;19.36;56.17;100310.59;2073848;28;19909;-65
2021/11/17 06:28:52;;;;;;;;;;;;;;;19.36;56.14;100313.34;2071012;28;19995;-65
2021/11/17 06:29:54;;;;;;;;;;;;;;;19.36;56.12;100318.81;2078053;28;20094;-65
2021/11/17 06:30:56;;;;;;;;;;;;;;;19.36;56.13;100322.41;2072764;28;19944;-65
2021/11/17 06:31:58;;;;;;;;;;;;;;;19.35;56.17;100325.25;2075124;28;20422;-65
2021/11/17 06:32:58;;;;;;;;;;;;;;;19.34;56.17;100329.88;2075449;28;19925;-65
2021/11/17 06:33:59;;;;;;;;;;;;;;;19.35;56.09;100330.72;2074352;28;19913;-66
2021/11/17 06:35:00;;;;;;;;;;;;;;;19.35;56.13;100330.72;2074248;28;19923;-66
2021/11/17 06:36:00;;;;;;;;;;;;;;;19.35;56.13;100336.19;2071991;28;19952;-66
2021/11/17 06:37:03;;;;;;;;;;;;;;;19.34;56.16;100334.47;2073157;28;19917;-66
2021/11/17 06:38:04;;;;;;;;;;;;;;;19.33;56.05;100339.09;2072363;28;19913;-66
2021/11/17 06:39:04;;;;;;;;;;;;;;;19.34;56.17;100345.41;2076830;28;20703;-67
2021/11/17 06:40:06;;;;;;;;;;;;;;;19.34;56.21;100339.94;2076045;28;20680;-67
2021/11/17 06:41:06;;;;;;;;;;;;;;;19.33;56.14;100347.28;2076315;28;20015;-66
2021/11/17 06:42:08;;;;;;;;;;;;;;;19.33;56.18;100340.94;2075240;28;19927;-66
2021/11/17 06:43:09;;;;;;;;;;;;;;;19.32;56.14;100339.22;2076592;28;20342;-66
2021/11/17 06:44:09;;;;;;;;;;;;;;;19.32;56.11;100339.22;2071160;28;20204;-67
2021/11/17 06:45:18;;;;;;;;;;;;;;;19.32;56.23;100348.28;2074616;28;20829;-67
2021/11/17 06:46:18;;;;;;;;;;;;;;;19.32;56.26;100348.28;2073941;28;19916;-66
2021/11/17 06:47:18;;;;;;;;;;;;;;;19.32;56.18;100353.75;2070402;28;19948;-68
2021/11/17 06:48:20;;;;;;;;;;;;;;;19.31;56.18;100348.44;2074781;28;20515;-67
2021/11/17 06:49:20;;;;;;;;;;;;;;;19.32;56.16;100359.22;2078150;28;19917;-66
2021/11/17 06:50:20;;;;;;;;;;;;;;;19.32;56.19;100359.22;2072802;28;20735;-67
2021/11/17 06:51:21;;;;;;;;;;;;;;;19.32;56.17;100356.47;2073561;28;19998;-67
2021/11/17 06:52:22;;;;;;;;;;;;;;;19.33;56.27;100365.53;2075063;28;19967;-67
2021/11/17 06:53:23;;;;;;;;;;;;;;;19.32;56.23;100361.09;2073701;28;19971;-67
2021/11/17 06:54:23;;;;;;;;;;;;;;;19.34;56.14;100364.56;2065570;28;20019;-67
2021/11/17 06:55:24;;;;;;;;;;;;;;;19.34;56.23;100359.94;2058680;28;19931;-66
2021/11/17 06:56:24;;;;;;;;;;;;;;;19.34;56.18;100364.56;2065450;28;19921;-66
2021/11/17 06:57:24;;;;;;;;;;;;;;;19.34;56.17;100367.28;2076859;28;19917;-65
2021/11/17 06:58:25;;;;;;;;;;;;;;;19.35;56.08;100369.00;2075203;28;19921;-65
2021/11/17 06:59:26;;;;;;;;;;;;;;;19.34;56.14;100367.28;2072979;28;20479;-65
2021/11/17 07:00:28;;;;;;;;;;;;;;;19.35;56.16;100379.94;2077037;28;19944;-66
2021/11/17 07:01:29;;;;;;;;;;;;;;;19.35;56.21;100379.94;2070009;28;19916;-65
2021/11/17 07:02:29;;;;;;;;;;;;;;;19.35;56.16;100380.78;2077596;28;20372;-65
2021/11/17 07:03:30;;;;;;;;;;;;;;;19.35;56.17;100385.41;2072419;28;19925;-66
2021/11/17 07:04:34;;;;;;;;;;;;;;;19.36;56.24;100392.63;2071378;28;19959;-66
2021/11/17 07:05:34;;;;;;;;;;;;;;;19.36;56.13;100381.69;2077332;28;19924;-66
2021/11/17 07:06:35;;;;;;;;;;;;;;;19.36;56.08;100384.41;2073900;28;19917;-65
2021/11/17 07:07:35;;;;;;;;;;;;;;;19.36;56.08;100387.16;2076511;28;20515;-66
2021/11/17 07:08:37;;;;;;;;;;;;;;;19.36;56.06;100384.41;2075705;28;20007;-66
2021/11/17 07:09:37;;;;;;;;;;;;;;;19.36;56.07;100389.88;2069680;28;19928;-66
2021/11/17 07:10:38;;;;;;;;;;;;;;;19.36;56.12;100387.16;2075986;28;19909;-66
2021/11/17 07:11:38;;;;;;;;;;;;;;;19.35;56.12;100388.13;2072311;28;19920;-66
2021/11/17 07:12:39;;;;;;;;;;;;;;;19.36;56.13;100395.34;2073987;28;20837;-66
2021/11/17 07:13:39;;;;;;;;;;;;;;;19.36;56.04;100398.06;2075662;28;19916;-66
2021/11/17 07:14:40;;;;;;;;;;;;;;;19.37;56.06;100399.78;2067614;28;20395;-65
2021/11/17 07:15:41;;;;;;;;;;;;;;;19.36;56.07;100395.34;2068276;28;19968;-65
2021/11/17 07:16:42;;;;;;;;;;;;;;;19.35;55.98;100396.34;2078193;28;20265;-65
2021/11/17 07:17:43;;;;;;;;;;;;;;;19.35;56.03;100391.72;2076577;28;19928;-66
2021/11/17 07:18:43;;;;;;;;;;;;;;;19.35;56.11;100393.59;2076929;28;19909;-65
2021/11/17 07:19:43;;;;;;;;;;;;;;;19.35;56.02;100402.66;2073038;28;20034;-65
2021/11/17 07:20:44;;;;;;;;;;;;;;;19.35;56.04;100402.66;2075740;28;20337;-65
2021/11/17 07:21:44;;;;;;;;;;;;;;;19.34;56.07;100405.56;2075073;28;19917;-64
2021/11/17 07:22:45;;;;;;;;;;;;;;;19.34;56.08;100400.09;2071939;28;19986;-65
2021/11/17 07:23:45;;;;;;;;;;;;;;;19.34;56.01;100411.03;2077846;28;19917;-65
2021/11/17 07:24:46;;;;;;;;;;;;;;;19.34;56.16;100409.16;2076952;28;19923;-65
2021/11/17 07:25:46;;;;;;;;;;;;;;;19.33;56.07;100407.44;2077235;28;20470;-65
2021/11/17 07:26:47;;;;;;;;;;;;;;;19.32;56.09;100407.56;2067711;28;19918;-65
2021/11/17 07:27:47;;;;;;;;;;;;;;;19.33;56.09;100410.16;2068241;28;19921;-65
2021/11/17 07:28:48;;;;;;;;;;;;;;;19.32;56.09;100407.56;2075602;28;19920;-66
2021/11/17 07:29:53;;;;;;;;;;;;;;;19.33;56.07;100414.75;2074569;28;19920;-65
2021/11/17 07:30:53;;;;;;;;;;;;;;;19.33;56.07;100420.22;2075605;28;19956;-65
2021/11/17 07:31:54;;;;;;;;;;;;;;;19.32;56.09;100415.75;2075297;28;20608;-65
2021/11/17 07:32:54;;;;;;;;;;;;;;;19.32;56.09;100415.75;2072735;28;19921;-65
2021/11/17 07:33:54;;;;;;;;;;;;;;;19.31;56.07;100420.38;2072960;28;19917;-65
2021/11/17 07:34:55;;;;;;;;;;;;;;;19.31;56.03;100417.63;2075464;28;19909;-66
2021/11/17 07:35:55;;;;;;;;;;;;;;;19.31;56.06;100420.38;2072709;28;19916;-65
2021/11/17 07:36:56;;;;;;;;;;;;;;;19.31;56.11;100419.53;2076407;28;20403;-66
2021/11/17 07:38:01;;;;;;;;;;;;;;;19.31;56.01;100416.78;2074945;28;19905;-65
2021/11/17 07:39:02;;;;;;;;;;;;;;;19.31;56.00;100422.25;2072122;28;19913;-64
2021/11/17 07:40:04;;;;;;;;;;;;;;;19.28;56.14;100424.25;2076618;28;19916;-65
2021/11/17 07:41:04;;;;;;;;;;;;;;;19.31;56.17;100427.72;2072820;28;20029;-64
2021/11/17 07:42:05;;;;;;;;;;;;;;;19.28;56.15;100424.25;2076883;28;19924;-65
2021/11/17 07:43:07;;;;;;;;;;;;;;;19.30;56.11;100420.50;2068145;28;19921;-67
2021/11/17 07:44:08;;;;;;;;;;;;;;;19.27;56.11;100417.03;2062545;28;20454;-65
2021/11/17 07:45:09;;;;;;;;;;;;;;;19.27;56.10;100422.50;2075958;28;20260;-65
2021/11/17 07:46:10;;;;;;;;;;;;;;;19.28;56.08;100429.72;2075320;28;19916;-65
2021/11/17 07:47:10;;;;;;;;;;;;;;;19.28;56.10;100426.13;2076668;28;20244;-66
2021/11/17 07:48:12;;;;;;;;;;;;;;;19.27;56.05;100433.44;2076539;28;19924;-65
2021/11/17 07:49:13;;;;;;;;;;;;;;;19.28;56.10;100434.34;2077472;28;19942;-65
2021/11/17 07:50:14;;;;;;;;;;;;;;;19.26;56.16;100420.81;2077522;28;20280;-66
2021/11/17 07:51:15;;;;;;;;;;;;;;;19.27;56.14;100430.72;2068778;28;20320;-65
2021/11/17 07:52:15;;;;;;;;;;;;;;;19.27;56.14;100433.44;2068213;28;19917;-66
2021/11/17 07:53:18;;;;;;;;;;;;;;;19.26;56.12;100426.25;2076599;28;19962;-66
2021/11/17 07:54:19;;;;;;;;;;;;;;;19.26;56.11;100437.19;2072997;28;19987;-66
2021/11/17 07:55:20;;;;;;;;;;;;;;;19.26;56.11;100431.72;2075265;28;19946;-66
2021/11/17 07:56:21;;;;;;;;;;;;;;;19.26;56.11;100430.88;2076311;28;19917;-66
2021/11/17 07:57:21;;;;;;;;;;;;;;;19.25;56.08;100435.44;2076762;28;19927;-66
2021/11/17 07:58:23;;;;;;;;;;;;;;;19.25;56.13;100443.66;2075530;28;19969;-66
2021/11/17 07:59:25;;;;;;;;;;;;;;;19.25;56.15;100443.66;2076440;28;19912;-66
2021/11/17 08:00:27;;;;;;;;;;;;;;;19.24;56.20;100439.19;2076414;28;19920;-66
2021/11/17 08:01:28;;;;;;;;;;;;;;;19.25;56.24;100445.53;2075770;28;19917;-66
2021/11/17 08:02:28;;;;;;;;;;;;;;;19.24;56.22;100447.41;2072164;28;19928;-66
2021/11/17 08:03:31;;;;;;;;;;;;;;;19.25;56.08;100446.38;2077159;28;19962;-66
2021/11/17 08:04:34;;;;;;;;;;;;;;;19.24;56.14;100449.28;2076637;28;20470;-66
2021/11/17 08:05:35;;;;;;;;;;;;;;;19.24;56.09;100452.00;2068615;28;19991;-66
2021/11/17 08:06:35;;;;;;;;;;;;;;;19.23;56.08;100456.63;2065142;28;19953;-66
2021/11/17 08:07:36;;;;;;;;;;;;;;;19.23;56.23;100453.88;2077998;28;19916;-66